Time;durP1;ratioP1;P1;durP2;ratioP2;P2;SDS_P1;SDS_P2;PMS_P1;PMS_P2;Temp;Humidity;BMP_temperature;BMP_pressure;BME280_temperature;BME280_humidity;BME280_pressure;Samples;Min_cycle;Max_cycle;Signal;HPM_P1;HPM_P2
2023/07/03 00:00:48;;;;;;;12.20;7.93;;;;;;;;;;5076964;28;20551;-74
2023/07/03 00:03:17;;;;;;;14.43;8.87;;;;;;;;;;5076589;28;20462;-74
2023/07/03 00:05:44;;;;;;;16.00;8.97;;;;;;;;;;5076446;28;20487;-74
2023/07/03 00:08:11;;;;;;;11.93;8.40;;;;;;;;;;5076550;28;20456;-74
2023/07/03 00:10:38;;;;;;;15.60;9.63;;;;;;;;;;5076381;28;20470;-74
2023/07/03 00:13:05;;;;;;;12.07;8.80;;;;;;;;;;5076309;28;20456;-74
2023/07/03 00:15:33;;;;;;;13.90;9.23;;;;;;;;;;5076454;28;20452;-73
2023/07/03 00:18:00;;;;;;;11.90;8.80;;;;;;;;;;5076276;28;20462;-73
2023/07/03 00:20:28;;;;;;;12.70;8.97;;;;;;;;;;5076122;28;21010;-74
2023/07/03 00:22:56;;;;;;;15.57;9.73;;;;;;;;;;5076285;28;20947;-73
2023/07/03 00:25:23;;;;;;;14.13;8.53;;;;;;;;;;5075899;28;20447;-74
2023/07/03 00:27:51;;;;;;;11.73;8.10;;;;;;;;;;5075959;28;20452;-74
2023/07/03 00:30:18;;;;;;;14.33;8.73;;;;;;;;;;5076175;28;20472;-73
2023/07/03 00:32:45;;;;;;;11.70;8.60;;;;;;;;;;5075955;28;20462;-73
2023/07/03 00:35:12;;;;;;;11.63;8.50;;;;;;;;;;5076230;28;20448;-73
2023/07/03 00:37:41;;;;;;;16.90;10.07;;;;;;;;;;5076001;28;20462;-73
2023/07/03 00:40:10;;;;;;;12.90;9.10;;;;;;;;;;5076166;28;20467;-73
2023/07/03 00:42:38;;;;;;;15.37;9.80;;;;;;;;;;5076017;28;20955;-73
2023/07/03 00:45:06;;;;;;;11.53;8.33;;;;;;;;;;5076026;28;20458;-73
2023/07/03 00:47:34;;;;;;;11.40;7.87;;;;;;;;;;5075588;28;20582;-73
2023/07/03 00:50:01;;;;;;;12.03;8.13;;;;;;;;;;5075687;28;20479;-73
2023/07/03 00:52:28;;;;;;;12.70;9.77;;;;;;;;;;5075719;28;20924;-74
2023/07/03 00:54:57;;;;;;;20.73;9.77;;;;;;;;;;5075636;28;20458;-73
2023/07/03 00:57:25;;;;;;;12.20;8.27;;;;;;;;;;5075439;28;20467;-73
2023/07/03 00:59:53;;;;;;;11.27;8.50;;;;;;;;;;5075709;28;20448;-73
2023/07/03 01:02:23;;;;;;;12.33;8.20;;;;;;;;;;5075487;28;20468;-74
2023/07/03 01:04:52;;;;;;;14.40;8.77;;;;;;;;;;5075713;28;20455;-74
2023/07/03 01:07:21;;;;;;;13.27;9.17;;;;;;;;;;5075085;28;20491;-74
2023/07/03 01:09:53;;;;;;;13.60;9.70;;;;;;;;;;5075315;28;20455;-74
2023/07/03 01:12:23;;;;;;;12.37;9.50;;;;;;;;;;5075519;28;20451;-74
2023/07/03 01:14:50;;;;;;;15.37;9.37;;;;;;;;;;5075231;28;20455;-73
2023/07/03 01:17:18;;;;;;;13.87;9.50;;;;;;;;;;5075300;28;20452;-73
2023/07/03 01:19:48;;;;;;;13.50;9.47;;;;;;;;;;5075168;28;20468;-74
2023/07/03 01:22:17;;;;;;;16.60;9.83;;;;;;;;;;5075272;28;20447;-73
2023/07/03 01:24:47;;;;;;;12.03;8.93;;;;;;;;;;5074588;28;20551;-73
2023/07/03 01:27:15;;;;;;;14.03;9.83;;;;;;;;;;5075007;28;20487;-74
2023/07/03 01:29:44;;;;;;;13.77;8.97;;;;;;;;;;5075486;28;20444;-74
2023/07/03 01:32:13;;;;;;;14.40;9.43;;;;;;;;;;5075138;28;20940;-74
2023/07/03 01:34:45;;;;;;;16.20;10.37;;;;;;;;;;5074932;28;20462;-73
2023/07/03 01:37:13;;;;;;;13.77;8.93;;;;;;;;;;5074993;28;20444;-74
2023/07/03 01:39:40;;;;;;;15.83;9.77;;;;;;;;;;5074891;28;20448;-74
2023/07/03 01:42:10;;;;;;;16.13;10.53;;;;;;;;;;5075025;28;20443;-73
2023/07/03 01:44:37;;;;;;;13.43;9.00;;;;;;;;;;5074771;28;20509;-74
2023/07/03 01:47:05;;;;;;;14.60;9.50;;;;;;;;;;5074522;28;20495;-74
2023/07/03 01:49:33;;;;;;;16.53;9.27;;;;;;;;;;5074567;28;20454;-74
2023/07/03 01:52:04;;;;;;;18.10;10.27;;;;;;;;;;5074715;28;20513;-73
2023/07/03 01:54:33;;;;;;;17.17;9.90;;;;;;;;;;5074621;28;20817;-73
2023/07/03 01:57:02;;;;;;;16.10;10.60;;;;;;;;;;5074381;28;20501;-73
2023/07/03 01:59:31;;;;;;;18.00;10.90;;;;;;;;;;5074394;28;20495;-73
2023/07/03 02:02:01;;;;;;;20.70;11.00;;;;;;;;;;5074487;28;20843;-73
2023/07/03 02:04:29;;;;;;;15.87;9.63;;;;;;;;;;5074159;28;20448;-73
2023/07/03 02:06:57;;;;;;;13.57;10.00;;;;;;;;;;5074423;28;20843;-73
2023/07/03 02:09:24;;;;;;;15.97;9.47;;;;;;;;;;5074105;28;20458;-74
2023/07/03 02:11:53;;;;;;;14.27;10.13;;;;;;;;;;5074285;28;20852;-74
2023/07/03 02:14:20;;;;;;;12.67;9.53;;;;;;;;;;5074264;28;20447;-73
2023/07/03 02:17:07;;;;;;;16.63;9.97;;;;;;;;;;5074131;28;20452;-74
2023/07/03 02:19:35;;;;;;;12.90;9.30;;;;;;;;;;5073743;28;20464;-74
2023/07/03 02:22:03;;;;;;;21.00;10.27;;;;;;;;;;5073972;28;20470;-74
2023/07/03 02:24:31;;;;;;;17.57;10.83;;;;;;;;;;5073441;28;20932;-74
2023/07/03 02:26:58;;;;;;;15.13;9.97;;;;;;;;;;5073786;28;20586;-74
2023/07/03 02:29:25;;;;;;;14.97;11.43;;;;;;;;;;5073833;28;20452;-73
2023/07/03 02:31:52;;;;;;;13.40;9.40;;;;;;;;;;5074086;28;20840;-73
2023/07/03 02:34:21;;;;;;;14.73;10.47;;;;;;;;;;5074089;28;20459;-74
2023/07/03 02:36:49;;;;;;;14.90;10.03;;;;;;;;;;5073882;28;20455;-74
2023/07/03 02:39:16;;;;;;;16.50;11.20;;;;;;;;;;5073693;28;20448;-74
2023/07/03 02:41:44;;;;;;;17.90;11.57;;;;;;;;;;5073692;28;20474;-74
2023/07/03 02:44:11;;;;;;;14.60;10.10;;;;;;;;;;5073662;28;20460;-73
2023/07/03 02:46:39;;;;;;;14.63;11.10;;;;;;;;;;5073494;28;20494;-73
2023/07/03 02:49:06;;;;;;;12.80;9.80;;;;;;;;;;5073403;28;20456;-73
2023/07/03 02:51:35;;;;;;;17.43;10.53;;;;;;;;;;5073275;28;20852;-74
2023/07/03 02:54:02;;;;;;;18.07;10.97;;;;;;;;;;5073681;28;20458;-73
2023/07/03 02:56:29;;;;;;;12.20;9.00;;;;;;;;;;5073302;28;20459;-74
2023/07/03 02:58:56;;;;;;;17.57;11.30;;;;;;;;;;5073301;28;20967;-73
2023/07/03 03:01:23;;;;;;;16.73;10.30;;;;;;;;;;5073196;28;20472;-73
2023/07/03 03:03:51;;;;;;;12.87;9.67;;;;;;;;;;5073221;28;20456;-74
2023/07/03 03:06:18;;;;;;;19.57;11.83;;;;;;;;;;5073397;28;20483;-73
2023/07/03 03:08:48;;;;;;;14.90;10.40;;;;;;;;;;5072962;28;20948;-73
2023/07/03 03:11:16;;;;;;;15.40;11.93;;;;;;;;;;5073173;28;20476;-73
2023/07/03 03:13:44;;;;;;;16.27;11.70;;;;;;;;;;5073112;28;20455;-73
2023/07/03 03:16:11;;;;;;;16.73;12.10;;;;;;;;;;5072321;28;20506;-74
2023/07/03 03:18:38;;;;;;;16.20;10.47;;;;;;;;;;5072675;28;20447;-74
2023/07/03 03:21:05;;;;;;;21.27;10.87;;;;;;;;;;5072200;28;20995;-73
2023/07/03 03:23:32;;;;;;;16.20;11.60;;;;;;;;;;5072315;28;20440;-73
2023/07/03 03:26:01;;;;;;;13.20;10.60;;;;;;;;;;5072096;28;20467;-73
2023/07/03 03:28:28;;;;;;;18.43;12.03;;;;;;;;;;5072162;28;20491;-74
2023/07/03 03:30:55;;;;;;;17.17;10.93;;;;;;;;;;5072117;28;20848;-74
2023/07/03 03:33:22;;;;;;;26.47;12.00;;;;;;;;;;5072097;28;20458;-73
2023/07/03 03:35:49;;;;;;;17.43;11.30;;;;;;;;;;5072068;28;20455;-73
2023/07/03 03:38:16;;;;;;;17.43;11.57;;;;;;;;;;5072279;28;20815;-73
2023/07/03 03:40:44;;;;;;;15.43;11.03;;;;;;;;;;5071987;28;20475;-74
2023/07/03 03:43:13;;;;;;;15.17;10.83;;;;;;;;;;5072178;28;20459;-74
2023/07/03 03:45:40;;;;;;;17.33;11.40;;;;;;;;;;5071918;28;20471;-73
2023/07/03 03:48:07;;;;;;;17.90;12.30;;;;;;;;;;5072300;28;20848;-73
2023/07/03 03:50:34;;;;;;;17.90;10.73;;;;;;;;;;5072082;28;20471;-73
2023/07/03 03:53:01;;;;;;;17.00;10.60;;;;;;;;;;5072040;28;20452;-73
2023/07/03 03:55:28;;;;;;;15.60;10.30;;;;;;;;;;5071864;28;20458;-74
2023/07/03 03:57:55;;;;;;;15.50;11.67;;;;;;;;;;5077345;28;20435;-74
2023/07/03 04:00:24;;;;;;;15.17;10.30;;;;;;;;;;5092041;28;20482;-74
2023/07/03 04:02:51;;;;;;;18.10;12.03;;;;;;;;;;5092351;28;20461;-73
2023/07/03 04:05:18;;;;;;;15.20;11.50;;;;;;;;;;5092147;28;20458;-73
2023/07/03 04:07:45;;;;;;;17.43;11.70;;;;;;;;;;5092149;28;20832;-73
2023/07/03 04:10:12;;;;;;;17.50;13.40;;;;;;;;;;5091935;28;20470;-73
2023/07/03 04:12:40;;;;;;;18.07;11.87;;;;;;;;;;5092235;28;20447;-73
2023/07/03 04:15:08;;;;;;;23.33;13.23;;;;;;;;;;5092033;28;20450;-73
2023/07/03 04:17:36;;;;;;;16.83;12.07;;;;;;;;;;5091822;28;20446;-74
2023/07/03 04:20:07;;;;;;;17.40;11.40;;;;;;;;;;5092001;28;21028;-74
2023/07/03 04:22:34;;;;;;;15.67;11.30;;;;;;;;;;5092012;28;20459;-75
2023/07/03 04:25:02;;;;;;;15.33;11.80;;;;;;;;;;5091703;28;20449;-74
2023/07/03 04:27:29;;;;;;;16.00;11.43;;;;;;;;;;5092483;28;21023;-74
2023/07/03 04:29:56;;;;;;;19.67;12.87;;;;;;;;;;5095977;28;20819;-74
2023/07/03 04:32:23;;;;;;;16.50;12.20;;;;;;;;;;5095525;28;20446;-74
2023/07/03 04:34:51;;;;;;;17.37;12.10;;;;;;;;;;5095975;28;20643;-74
2023/07/03 04:37:19;;;;;;;17.37;11.27;;;;;;;;;;5095551;28;20953;-74
2023/07/03 04:39:46;;;;;;;15.73;12.87;;;;;;;;;;5095598;28;20450;-74
2023/07/03 04:42:13;;;;;;;18.10;11.50;;;;;;;;;;5095561;28;20462;-74
2023/07/03 04:44:41;;;;;;;23.37;14.93;;;;;;;;;;5095740;28;20454;-74
2023/07/03 04:47:08;;;;;;;18.43;11.83;;;;;;;;;;5095249;28;20509;-74
2023/07/03 04:49:36;;;;;;;16.70;11.73;;;;;;;;;;5095517;28;20490;-73
2023/07/03 04:52:05;;;;;;;16.63;12.93;;;;;;;;;;5095198;28;20448;-74
2023/07/03 04:54:32;;;;;;;16.20;11.90;;;;;;;;;;5095277;28;20446;-74
2023/07/03 04:56:59;;;;;;;24.10;12.70;;;;;;;;;;5095227;28;20451;-74
2023/07/03 04:59:26;;;;;;;17.50;12.00;;;;;;;;;;5094860;28;20455;-74
2023/07/03 05:01:53;;;;;;;19.60;12.00;;;;;;;;;;5095120;28;20466;-74
2023/07/03 05:04:20;;;;;;;21.03;12.00;;;;;;;;;;5095043;28;20435;-76
2023/07/03 05:06:50;;;;;;;13.90;11.50;;;;;;;;;;5092264;28;21038;-76
2023/07/03 05:09:19;;;;;;;20.90;13.33;;;;;;;;;;5074811;28;20472;-76
2023/07/03 05:11:48;;;;;;;18.17;13.20;;;;;;;;;;5074740;28;20472;-76
2023/07/03 05:14:15;;;;;;;19.13;12.50;;;;;;;;;;5074701;28;20463;-76
2023/07/03 05:16:42;;;;;;;16.60;11.80;;;;;;;;;;5075124;28;20443;-76
2023/07/03 05:19:10;;;;;;;20.60;12.30;;;;;;;;;;5074474;28;20817;-76
2023/07/03 05:21:37;;;;;;;23.30;14.90;;;;;;;;;;5074494;28;20476;-76
2023/07/03 05:24:04;;;;;;;23.37;13.03;;;;;;;;;;5092472;28;20935;-76
2023/07/03 05:26:32;;;;;;;15.70;12.00;;;;;;;;;;5076445;28;20818;-76
2023/07/03 05:28:59;;;;;;;15.70;11.30;;;;;;;;;;5074152;28;20494;-76
2023/07/03 05:31:27;;;;;;;18.50;12.13;;;;;;;;;;5074042;28;20825;-77
2023/07/03 05:33:54;;;;;;;23.47;12.70;;;;;;;;;;5074054;28;20435;-77
2023/07/03 05:36:21;;;;;;;20.43;13.07;;;;;;;;;;5074255;28;20483;-76
2023/07/03 05:38:48;;;;;;;21.40;13.70;;;;;;;;;;5073336;28;20943;-76
2023/07/03 05:41:16;;;;;;;19.60;12.60;;;;;;;;;;5073730;28;20468;-76
2023/07/03 05:43:44;;;;;;;22.63;13.07;;;;;;;;;;5074129;28;20456;-76
2023/07/03 05:46:11;;;;;;;17.13;11.80;;;;;;;;;;5074095;28;20467;-77
2023/07/03 05:48:38;;;;;;;16.37;12.27;;;;;;;;;;5073737;28;20500;-75
2023/07/03 05:51:05;;;;;;;20.23;14.30;;;;;;;;;;5074226;28;20471;-75
2023/07/03 05:53:33;;;;;;;19.23;12.20;;;;;;;;;;5073896;28;20468;-75
2023/07/03 05:56:00;;;;;;;16.10;12.70;;;;;;;;;;5073822;28;20456;-75
2023/07/03 05:58:28;;;;;;;22.40;14.47;;;;;;;;;;5073800;28;20451;-75
2023/07/03 06:00:58;;;;;;;19.03;12.23;;;;;;;;;;5073599;28;20467;-75
2023/07/03 06:03:26;;;;;;;17.30;12.70;;;;;;;;;;5073506;28;20463;-74
2023/07/03 06:05:53;;;;;;;18.67;12.87;;;;;;;;;;5073974;28;20455;-75
2023/07/03 06:08:20;;;;;;;15.60;11.10;;;;;;;;;;5073359;28;20487;-75
2023/07/03 06:10:47;;;;;;;15.23;12.17;;;;;;;;;;5073279;28;20841;-75
2023/07/03 06:13:14;;;;;;;18.60;12.30;;;;;;;;;;5073537;28;20454;-75
2023/07/03 06:15:42;;;;;;;19.97;13.10;;;;;;;;;;5072066;28;20456;-75
2023/07/03 06:18:10;;;;;;;22.03;12.43;;;;;;;;;;5073538;28;20451;-75
2023/07/03 06:20:37;;;;;;;20.57;13.23;;;;;;;;;;5073537;28;20475;-74
2023/07/03 06:23:05;;;;;;;21.37;13.10;;;;;;;;;;5073390;28;20479;-75
2023/07/03 06:25:32;;;;;;;20.00;11.67;;;;;;;;;;5073222;28;20452;-74
2023/07/03 06:27:59;;;;;;;23.07;13.57;;;;;;;;;;5073019;28;20484;-74
2023/07/03 06:30:26;;;;;;;21.23;12.10;;;;;;;;;;5073037;28;20843;-74
2023/07/03 06:32:53;;;;;;;17.80;12.33;;;;;;;;;;5073359;28;20455;-74
2023/07/03 06:35:22;;;;;;;17.40;12.63;;;;;;;;;;5073105;28;20478;-75
2023/07/03 06:37:49;;;;;;;19.30;13.40;;;;;;;;;;5073428;28;20967;-75
2023/07/03 06:40:18;;;;;;;17.93;13.00;;;;;;;;;;5072864;28;20475;-75
2023/07/03 06:42:45;;;;;;;21.50;13.43;;;;;;;;;;5072792;28;20551;-76
2023/07/03 06:45:13;;;;;;;21.23;13.27;;;;;;;;;;5073151;28;20854;-75
2023/07/03 06:47:40;;;;;;;20.23;13.43;;;;;;;;;;5071524;28;20502;-75
2023/07/03 06:50:08;;;;;;;16.97;12.20;;;;;;;;;;5072005;28;20529;-75
2023/07/03 06:52:37;;;;;;;24.33;12.73;;;;;;;;;;5071262;28;20462;-75
2023/07/03 06:55:04;;;;;;;19.13;12.90;;;;;;;;;;5072561;28;20454;-75
2023/07/03 06:57:32;;;;;;;23.30;13.23;;;;;;;;;;5071696;28;20937;-75
2023/07/03 06:59:59;;;;;;;16.67;12.47;;;;;;;;;;5072520;28;20483;-75
2023/07/03 07:02:26;;;;;;;30.53;11.80;;;;;;;;;;5072748;28;20827;-75
2023/07/03 07:04:55;;;;;;;17.07;12.80;;;;;;;;;;5072042;28;20458;-75
2023/07/03 07:07:22;;;;;;;22.77;12.33;;;;;;;;;;5072136;28;20509;-76
2023/07/03 07:09:51;;;;;;;21.17;12.57;;;;;;;;;;5072270;28;20475;-75
2023/07/03 07:12:18;;;;;;;20.03;13.50;;;;;;;;;;5080177;28;20463;-76
2023/07/03 07:14:45;;;;;;;16.60;11.83;;;;;;;;;;5080517;28;20463;-76
2023/07/03 07:17:12;;;;;;;17.63;12.40;;;;;;;;;;5090858;28;20446;-76
2023/07/03 07:19:39;;;;;;;14.97;11.20;;;;;;;;;;5090601;28;20470;-76
2023/07/03 07:22:06;;;;;;;16.53;13.20;;;;;;;;;;5090889;28;20463;-76
2023/07/03 07:24:33;;;;;;;16.67;12.50;;;;;;;;;;5090367;28;20923;-76
2023/07/03 07:27:02;;;;;;;16.13;11.50;;;;;;;;;;5090866;28;20462;-76
2023/07/03 07:29:29;;;;;;;15.70;12.83;;;;;;;;;;5090306;28;20803;-76
2023/07/03 07:31:57;;;;;;;15.50;12.67;;;;;;;;;;5091595;28;20471;-75
2023/07/03 07:34:25;;;;;;;17.23;13.37;;;;;;;;;;5091803;28;20456;-76
2023/07/03 07:37:20;;;;;;;20.67;13.40;;;;;;;;;;5092158;28;20446;-75
2023/07/03 07:39:48;;;;;;;20.57;14.17;;;;;;;;;;5091651;28;20490;-76
2023/07/03 07:42:16;;;;;;;23.00;14.10;;;;;;;;;;5092526;28;20442;-77
2023/07/03 07:44:43;;;;;;;24.57;13.83;;;;;;;;;;5091183;28;20450;-76
2023/07/03 07:47:11;;;;;;;20.43;12.60;;;;;;;;;;5090997;28;20949;-76
2023/07/03 07:49:39;;;;;;;17.83;12.30;;;;;;;;;;5091606;28;20537;-76
2023/07/03 07:52:07;;;;;;;21.03;13.20;;;;;;;;;;5091849;28;20458;-76
2023/07/03 07:54:34;;;;;;;18.37;11.80;;;;;;;;;;5091760;28;20923;-76
2023/07/03 07:57:01;;;;;;;19.67;13.87;;;;;;;;;;5091730;28;20864;-76
2023/07/03 07:59:30;;;;;;;22.43;13.50;;;;;;;;;;5091873;28;20447;-76
2023/07/03 08:01:57;;;;;;;21.23;13.47;;;;;;;;;;5092251;28;20527;-76
2023/07/03 08:04:24;;;;;;;22.30;13.67;;;;;;;;;;5096556;28;20454;-76
2023/07/03 08:06:51;;;;;;;19.33;12.43;;;;;;;;;;5096536;28;20445;-76
2023/07/03 08:09:18;;;;;;;22.00;12.97;;;;;;;;;;5096367;28;20493;-75
2023/07/03 08:11:45;;;;;;;20.17;12.20;;;;;;;;;;5096366;28;20466;-76
2023/07/03 08:14:13;;;;;;;16.40;12.83;;;;;;;;;;5096232;28;20446;-76
2023/07/03 08:16:41;;;;;;;22.37;13.40;;;;;;;;;;5096212;28;20455;-76
2023/07/03 08:19:08;;;;;;;24.10;12.87;;;;;;;;;;5096173;28;20489;-76
2023/07/03 08:21:35;;;;;;;17.87;12.90;;;;;;;;;;5096098;28;20482;-76
2023/07/03 08:24:02;;;;;;;25.70;15.57;;;;;;;;;;5095614;28;20458;-76
2023/07/03 08:26:31;;;;;;;26.40;13.20;;;;;;;;;;5096022;28;20790;-76
2023/07/03 08:28:58;;;;;;;17.20;12.73;;;;;;;;;;5095862;28;20494;-76
2023/07/03 08:31:25;;;;;;;16.87;12.23;;;;;;;;;;5096078;28;20482;-76
2023/07/03 08:33:55;;;;;;;20.70;12.20;;;;;;;;;;5096435;28;20450;-76
2023/07/03 08:36:22;;;;;;;20.13;13.23;;;;;;;;;;5096165;28;20450;-76
2023/07/03 08:38:49;;;;;;;18.17;13.90;;;;;;;;;;5095852;28;20438;-76
2023/07/03 08:41:17;;;;;;;18.07;13.73;;;;;;;;;;5095725;28;20474;-76
2023/07/03 08:43:45;;;;;;;23.50;13.67;;;;;;;;;;5096125;28;20459;-77
2023/07/03 08:46:15;;;;;;;21.30;13.30;;;;;;;;;;5095985;28;20454;-76
2023/07/03 08:48:43;;;;;;;20.77;13.20;;;;;;;;;;5095456;28;20547;-76
2023/07/03 08:51:18;;;;;;;16.30;11.70;;;;;;;;;;5095801;28;20482;-77
2023/07/03 08:53:45;;;;;;;17.97;11.57;;;;;;;;;;5095947;28;20483;-76
2023/07/03 08:56:15;;;;;;;19.30;13.63;;;;;;;;;;5095576;28;20450;-77
2023/07/03 08:58:43;;;;;;;20.07;13.53;;;;;;;;;;5095315;28;20550;-76
2023/07/03 09:01:15;;;;;;;14.60;11.90;;;;;;;;;;5095648;28;20462;-76
2023/07/03 09:03:46;;;;;;;18.67;12.30;;;;;;;;;;5095458;28;20827;-77
2023/07/03 09:06:17;;;;;;;18.57;11.80;;;;;;;;;;5095495;28;20450;-77
2023/07/03 09:08:54;;;;;;;18.73;11.80;;;;;;;;;;5094955;28;20509;-77
2023/07/03 09:11:22;;;;;;;19.20;12.73;;;;;;;;;;5095138;28;20473;-77
2023/07/03 09:13:52;;;;;;;15.87;11.33;;;;;;;;;;5094166;28;20446;-77
2023/07/03 09:16:22;;;;;;;20.17;11.80;;;;;;;;;;5095022;28;20446;-77
2023/07/03 09:18:52;;;;;;;17.70;11.97;;;;;;;;;;5095005;28;20447;-77
2023/07/03 09:21:20;;;;;;;18.50;12.20;;;;;;;;;;5094858;28;20486;-77
2023/07/03 09:23:55;;;;;;;18.00;11.90;;;;;;;;;;5095321;28;20454;-77
2023/07/03 09:26:24;;;;;;;16.40;12.27;;;;;;;;;;5094921;28;20456;-77
2023/07/03 09:28:57;;;;;;;16.57;12.30;;;;;;;;;;5094784;28;20486;-77
2023/07/03 09:31:24;;;;;;;18.87;13.77;;;;;;;;;;5094815;28;20966;-77
2023/07/03 09:33:51;;;;;;;13.47;10.83;;;;;;;;;;5094944;28;20884;-77
2023/07/03 09:36:25;;;;;;;16.90;10.90;;;;;;;;;;5094652;28;20458;-76
2023/07/03 09:38:52;;;;;;;18.00;11.40;;;;;;;;;;5094763;28;20953;-77
2023/07/03 09:41:27;;;;;;;17.57;11.20;;;;;;;;;;5094767;28;20478;-77
2023/07/03 09:43:55;;;;;;;13.43;10.43;;;;;;;;;;5094808;28;20445;-77
2023/07/03 09:46:22;;;;;;;16.17;11.73;;;;;;;;;;5094703;28;20451;-77
2023/07/03 09:48:49;;;;;;;14.97;10.60;;;;;;;;;;5094273;28;21005;-76
2023/07/03 09:51:24;;;;;;;16.63;10.47;;;;;;;;;;5094711;28;20462;-77
2023/07/03 09:53:56;;;;;;;11.97;8.17;;;;;;;;;;5094786;28;20950;-77
2023/07/03 09:56:24;;;;;;;14.80;9.53;;;;;;;;;;5094313;28;20439;-77
2023/07/03 09:58:52;;;;;;;14.40;9.77;;;;;;;;;;5094408;28;20443;-76
2023/07/03 10:01:23;;;;;;;16.30;11.70;;;;;;;;;;5094443;28;20478;-77
2023/07/03 10:04:01;;;;;;;15.30;11.00;;;;;;;;;;5094681;28;20871;-77
2023/07/03 10:06:29;;;;;;;17.53;10.63;;;;;;;;;;5094095;28;20470;-76
2023/07/03 10:09:00;;;;;;;14.83;9.97;;;;;;;;;;5093946;28;20543;-77
2023/07/03 10:11:30;;;;;;;18.30;10.17;;;;;;;;;;5093974;28;20477;-77
2023/07/03 10:13:57;;;;;;;16.23;10.63;;;;;;;;;;5094070;28;20455;-77
2023/07/03 10:16:25;;;;;;;14.23;9.60;;;;;;;;;;5093961;28;20815;-76
2023/07/03 10:18:55;;;;;;;16.00;10.93;;;;;;;;;;5093977;28;20883;-77
2023/07/03 10:21:23;;;;;;;17.83;10.67;;;;;;;;;;5094192;28;20963;-77
2023/07/03 10:23:51;;;;;;;15.50;10.37;;;;;;;;;;5093646;28;20457;-77
2023/07/03 10:26:21;;;;;;;13.53;9.43;;;;;;;;;;5092825;28;20455;-77
2023/07/03 10:28:50;;;;;;;13.23;10.20;;;;;;;;;;5093745;28;20927;-77
2023/07/03 10:31:20;;;;;;;21.00;10.20;;;;;;;;;;5094011;28;20842;-77
2023/07/03 10:33:49;;;;;;;17.40;10.93;;;;;;;;;;5093790;28;20552;-77
2023/07/03 10:36:19;;;;;;;17.83;11.70;;;;;;;;;;5093557;28;21008;-77
2023/07/03 10:38:51;;;;;;;15.40;10.00;;;;;;;;;;5093582;28;20446;-77
2023/07/03 10:41:23;;;;;;;16.40;10.03;;;;;;;;;;5093415;28;20545;-76
2023/07/03 10:43:51;;;;;;;17.67;12.97;;;;;;;;;;5093578;28;20458;-77
2023/07/03 10:46:23;;;;;;;16.10;11.60;;;;;;;;;;5093560;28;20454;-77
2023/07/03 10:48:50;;;;;;;12.70;9.87;;;;;;;;;;5093108;28;20455;-76
2023/07/03 10:51:20;;;;;;;17.90;10.87;;;;;;;;;;5093123;28;20470;-77
2023/07/03 10:53:49;;;;;;;17.60;10.73;;;;;;;;;;5093378;28;20911;-77
2023/07/03 10:56:18;;;;;;;15.30;10.00;;;;;;;;;;5093187;28;20462;-77
2023/07/03 10:58:49;;;;;;;14.03;10.40;;;;;;;;;;5092972;28;20458;-77
2023/07/03 11:01:20;;;;;;;20.87;11.73;;;;;;;;;;5093076;28;20481;-77
2023/07/03 11:03:51;;;;;;;16.30;10.60;;;;;;;;;;5093224;28;20822;-77
2023/07/03 11:06:25;;;;;;;16.80;11.50;;;;;;;;;;5093125;28;20894;-77
2023/07/03 11:08:55;;;;;;;19.57;10.97;;;;;;;;;;5093055;28;20458;-77
2023/07/03 11:11:27;;;;;;;16.67;11.50;;;;;;;;;;5092721;28;20466;-77
2023/07/03 11:14:01;;;;;;;10.50;9.13;;;;;;;;;;5092976;28;20457;-77
2023/07/03 11:16:30;;;;;;;15.53;9.63;;;;;;;;;;5093047;28;20454;-77
2023/07/03 11:19:09;;;;;;;15.47;11.10;;;;;;;;;;5092909;28;20442;-77
2023/07/03 11:21:40;;;;;;;16.93;10.07;;;;;;;;;;5092733;28;20470;-77
2023/07/03 11:24:12;;;;;;;15.17;10.90;;;;;;;;;;5092502;28;20460;-77
2023/07/03 11:26:40;;;;;;;13.90;9.37;;;;;;;;;;5092823;28;20450;-77
2023/07/03 11:29:09;;;;;;;17.37;10.77;;;;;;;;;;5092684;28;20446;-77
2023/07/03 11:31:38;;;;;;;14.47;10.73;;;;;;;;;;5092837;28;20471;-77
2023/07/03 11:34:06;;;;;;;17.20;11.00;;;;;;;;;;5092480;28;20482;-77
2023/07/03 11:36:39;;;;;;;22.23;11.43;;;;;;;;;;5092292;28;20521;-76
2023/07/03 11:39:15;;;;;;;16.47;10.07;;;;;;;;;;5092246;28;20450;-77
2023/07/03 11:41:48;;;;;;;13.97;9.77;;;;;;;;;;5092527;28;20471;-76
2023/07/03 11:44:20;;;;;;;15.40;10.70;;;;;;;;;;5092674;28;20813;-77
2023/07/03 11:46:54;;;;;;;14.17;9.57;;;;;;;;;;5092422;28;20454;-76
2023/07/03 11:49:25;;;;;;;14.30;9.30;;;;;;;;;;5092580;28;20500;-76
2023/07/03 11:51:57;;;;;;;15.37;10.93;;;;;;;;;;5092727;28;20482;-77
2023/07/03 11:54:26;;;;;;;17.83;10.83;;;;;;;;;;5092335;28;20454;-76
2023/07/03 11:56:55;;;;;;;15.03;10.60;;;;;;;;;;5092449;28;20455;-76
2023/07/03 11:59:37;;;;;;;13.70;10.40;;;;;;;;;;5092615;28;20446;-77
2023/07/03 12:02:23;;;;;;;16.50;10.23;;;;;;;;;;5092722;28;20453;-77
2023/07/03 12:04:51;;;;;;;14.97;8.73;;;;;;;;;;5092550;28;20457;-77
2023/07/03 12:07:37;;;;;;;12.73;10.00;;;;;;;;;;5092355;28;21010;-76
2023/07/03 12:10:28;;;;;;;13.93;7.90;;;;;;;;;;5092313;28;20490;-76
2023/07/03 12:13:14;;;;;;;13.70;10.93;;;;;;;;;;5092352;28;20899;-77
2023/07/03 12:15:42;;;;;;;16.40;9.20;;;;;;;;;;5092345;28;20465;-76
2023/07/03 12:18:10;;;;;;;12.70;8.70;;;;;;;;;;5092114;28;20461;-77
2023/07/03 12:20:37;;;;;;;12.27;8.80;;;;;;;;;;5091791;28;20482;-77
2023/07/03 12:23:04;;;;;;;18.23;8.83;;;;;;;;;;5091601;28;20827;-77
2023/07/03 12:25:31;;;;;;;22.77;9.53;;;;;;;;;;5091477;28;20431;-78
2023/07/03 12:28:09;;;;;;;11.90;7.87;;;;;;;;;;5091687;28;20461;-77
2023/07/03 12:30:36;;;;;;;12.80;8.47;;;;;;;;;;5091609;28;20547;-76
2023/07/03 12:33:06;;;;;;;15.43;8.53;;;;;;;;;;5091868;28;20915;-77
2023/07/03 12:35:34;;;;;;;20.10;10.13;;;;;;;;;;5091752;28;20462;-77
2023/07/03 12:38:06;;;;;;;15.63;9.60;;;;;;;;;;5091698;28;20443;-77
2023/07/03 12:40:33;;;;;;;14.50;9.37;;;;;;;;;;5091496;28;20843;-77
2023/07/03 12:43:00;;;;;;;14.77;8.33;;;;;;;;;;5091856;28;20873;-77
2023/07/03 12:45:29;;;;;;;11.67;8.80;;;;;;;;;;5091631;28;20454;-77
2023/07/03 12:48:02;;;;;;;14.47;8.93;;;;;;;;;;5091450;28;20450;-77
2023/07/03 12:50:31;;;;;;;15.20;8.50;;;;;;;;;;5095036;28;20486;-77
2023/07/03 12:52:58;;;;;;;14.17;8.47;;;;;;;;;;5094910;28;20461;-77
2023/07/03 12:55:26;;;;;;;11.97;8.40;;;;;;;;;;5094991;28;20446;-77
2023/07/03 12:57:54;;;;;;;10.10;7.10;;;;;;;;;;5094930;28;20459;-77
2023/07/03 13:00:25;;;;;;;11.43;7.63;;;;;;;;;;5094876;28;20485;-76
2023/07/03 13:02:52;;;;;;;8.67;7.17;;;;;;;;;;5094920;28;20454;-77
2023/07/03 13:05:20;;;;;;;12.80;8.53;;;;;;;;;;5094830;28;20451;-76
2023/07/03 13:07:48;;;;;;;17.00;8.20;;;;;;;;;;5094735;28;20946;-76
2023/07/03 13:10:17;;;;;;;11.13;7.20;;;;;;;;;;5094687;28;21008;-77
2023/07/03 13:12:44;;;;;;;10.83;7.53;;;;;;;;;;5094817;28;20828;-77
2023/07/03 13:15:12;;;;;;;11.33;7.20;;;;;;;;;;5094809;28;20908;-77
2023/07/03 13:17:41;;;;;;;12.80;7.40;;;;;;;;;;5094457;28;20462;-76
2023/07/03 13:20:16;;;;;;;9.23;6.70;;;;;;;;;;5094654;28;20481;-76
2023/07/03 13:22:45;;;;;;;9.47;7.50;;;;;;;;;;5094704;28;20445;-77
2023/07/03 13:25:22;;;;;;;12.90;7.80;;;;;;;;;;5094166;28;20450;-77
2023/07/03 13:27:49;;;;;;;12.93;5.83;;;;;;;;;;5094574;28;20453;-76
2023/07/03 13:30:19;;;;;;;10.20;6.70;;;;;;;;;;5094419;28;20482;-76
2023/07/03 13:32:53;;;;;;;14.23;7.73;;;;;;;;;;5094474;28;20937;-76
2023/07/03 13:35:27;;;;;;;7.47;5.47;;;;;;;;;;5094338;28;20462;-77
2023/07/03 13:37:54;;;;;;;18.60;8.23;;;;;;;;;;5094554;28;20822;-78
2023/07/03 13:40:22;;;;;;;11.23;7.57;;;;;;;;;;5094200;28;20474;-77
2023/07/03 13:42:56;;;;;;;10.87;6.90;;;;;;;;;;5094342;28;20443;-77
2023/07/03 13:45:24;;;;;;;12.17;7.63;;;;;;;;;;5094339;28;20554;-77
2023/07/03 13:47:52;;;;;;;6.80;6.10;;;;;;;;;;5094152;28;20451;-76
2023/07/03 13:50:19;;;;;;;9.70;6.73;;;;;;;;;;5094137;28;20490;-76
2023/07/03 13:52:46;;;;;;;12.63;7.27;;;;;;;;;;5094221;28;20450;-76
2023/07/03 13:55:14;;;;;;;9.37;7.07;;;;;;;;;;5093885;28;20451;-76
2023/07/03 13:57:43;;;;;;;8.17;6.60;;;;;;;;;;5094056;28;20455;-76
2023/07/03 14:00:11;;;;;;;13.73;7.37;;;;;;;;;;5093009;28;20471;-76
2023/07/03 14:02:39;;;;;;;10.63;7.00;;;;;;;;;;5085436;28;20459;-76
2023/07/03 14:05:06;;;;;;;8.00;6.47;;;;;;;;;;5073397;28;20994;-76
2023/07/03 14:07:34;;;;;;;9.70;6.60;;;;;;;;;;5073195;28;20925;-76
2023/07/03 14:10:02;;;;;;;8.43;6.73;;;;;;;;;;5073317;28;20503;-76
2023/07/03 14:12:29;;;;;;;10.27;6.37;;;;;;;;;;5072969;28;20456;-76
2023/07/03 14:14:58;;;;;;;12.83;7.27;;;;;;;;;;5073171;28;20455;-76
2023/07/03 14:17:25;;;;;;;10.50;6.30;;;;;;;;;;5072960;28;20523;-76
2023/07/03 14:19:52;;;;;;;12.57;8.20;;;;;;;;;;5073057;28;20454;-76
2023/07/03 14:22:19;;;;;;;9.30;6.07;;;;;;;;;;5073322;28;20828;-76
2023/07/03 14:24:46;;;;;;;10.77;6.60;;;;;;;;;;5072562;28;20455;-76
2023/07/03 14:27:14;;;;;;;11.17;6.80;;;;;;;;;;5072859;28;20458;-76
2023/07/03 14:29:41;;;;;;;6.80;5.47;;;;;;;;;;5072739;28;20940;-76